Taylor Fork

This weather station provides wind speed, gust or max wind speed, and wind direction at 9460 ft. near Pika Point above Sunlight Basin.  

This data can be used with temperature and precipitation data from the Carrot Basin SNOTEL site. If the data below is not displayed or up to date, view data here.

Elevation
9460ft
Jump to table bottom
Date Time Temperature
deg F
RH, % Wind Speed Wind Gust Wind Direction
01/28/22 04:00 19.2 28 11 17 NW - 312
01/28/22 03:00 18.6 29 10 14 NW - 324
01/28/22 02:00 18.9 29 10 14 NW - 317
01/28/22 01:00 18.8 29 7 10 NW - 319
01/28/22 00:00 17.8 30 7 12 NW - 310
01/27/22 23:00 18.0 31 7 13 NW - 295
01/27/22 22:00 17.3 29 3 7 SW - 243
01/27/22 21:00 15.2 30 4 8 W - 264
01/27/22 20:00 16.6 27 3 7 SW - 237
01/27/22 19:00 15.9 26 4 8 S - 183
01/27/22 18:00 14.5 31 5 9 NW - 307
01/27/22 17:00 14.6 45 9 14 W - 277
01/27/22 16:00 13.5 64 10 14 SW - 246
01/27/22 15:00 11.7 76 8 12 SW - 239
01/27/22 14:00 12.4 82 7 10 SW - 206
01/27/22 13:00 10.9 87 7 10 S - 201
01/27/22 12:00 10.6 89 4 9 NW - 293
01/27/22 11:00 10.4 90 3 10 N - 21
01/27/22 10:00 6.8 90 6 14 N - 3
01/27/22 09:00 5.2 89 3 9 N - 17
01/27/22 08:00 3.3 88 3 12 N - 22
01/27/22 07:00 4.5 88 3 10 N - 18
01/27/22 06:00 5.5 89 3 11 NE - 25
01/27/22 05:00 6.1 89 5 12 N - 10
01/27/22 04:00 6.5 89 6 14 N - 10
01/27/22 03:00 6.6 89 11 23 N - 358
01/27/22 02:00 7.1 89 8 19 N - 7
01/27/22 01:00 8.2 89 9 19 N - 0
01/27/22 00:00 8.4 89 10 17 N - 357
01/26/22 23:00 8.5 85 8 21 N - 11
01/26/22 22:00 11.0 66 13 22 N - 343
01/26/22 21:00 12.1 59 14 27 NW - 306
01/26/22 20:00 13.0 58 15 27 NW - 303
01/26/22 19:00 13.2 58 14 25 NW - 295
01/26/22 18:00 11.5 66 16 28 W - 289
01/26/22 17:00 13.5 61 10 19 W - 271
01/26/22 16:00 13.8 59 10 14 SW - 230
01/26/22 15:00 16.0 57 8 12 SW - 232
01/26/22 14:00 16.4 55 10 15 W - 254
01/26/22 13:00 16.6 53 10 17 W - 265
01/26/22 12:00 16.5 48 11 18 W - 253
01/26/22 11:00 14.5 47 9 14 W - 254
01/26/22 10:00 15.9 40 5 14 NW - 296
01/26/22 09:00 14.8 42 5 12 W - 292
01/26/22 08:00 14.8 40 5 13 W - 279
01/26/22 07:00 13.6 48 4 9 SE - 147
01/26/22 06:00 13.8 46 10 16 W - 281
01/26/22 05:00 13.8 46 5 17 W - 263
01/26/22 04:00 14.1 44 9 13 SW - 241
01/26/22 03:00 15.0 42 10 15 SW - 233